sensor_id;sensor_type;location;lat;lon;timestamp;pressure;altitude;pressure_sealevel;temperature;humidity
61478;BME280;47345;52.334;10.392;2023-07-30T00:00:34;100067.27;;;17.90;77.84
61478;BME280;47345;52.334;10.392;2023-07-30T00:03:04;100068.39;;;17.91;77.84
61478;BME280;47345;52.334;10.392;2023-07-30T00:05:36;100067.18;;;17.94;77.87
61478;BME280;47345;52.334;10.392;2023-07-30T00:08:07;100068.58;;;17.96;77.82
61478;BME280;47345;52.334;10.392;2023-07-30T00:10:38;100064.75;;;17.97;77.79
61478;BME280;47345;52.334;10.392;2023-07-30T00:13:09;100063.88;;;17.98;77.97
61478;BME280;47345;52.334;10.392;2023-07-30T00:15:40;100065.79;;;18.00;77.88
61478;BME280;47345;52.334;10.392;2023-07-30T00:18:11;100067.09;;;17.99;77.75
61478;BME280;47345;52.334;10.392;2023-07-30T00:20:42;100071.06;;;17.95;77.88
61478;BME280;47345;52.334;10.392;2023-07-30T00:23:13;100071.10;;;17.92;77.88
61478;BME280;47345;52.334;10.392;2023-07-30T00:25:44;100068.50;;;17.87;78.00
61478;BME280;47345;52.334;10.392;2023-07-30T00:28:15;100074.12;;;17.80;78.01
61478;BME280;47345;52.334;10.392;2023-07-30T00:30:46;100077.68;;;17.74;78.24
61478;BME280;47345;52.334;10.392;2023-07-30T00:33:16;100079.49;;;17.70;78.25
61478;BME280;47345;52.334;10.392;2023-07-30T00:35:50;100076.45;;;17.66;78.43
61478;BME280;47345;52.334;10.392;2023-07-30T00:38:21;100079.86;;;17.65;78.76
61478;BME280;47345;52.334;10.392;2023-07-30T00:40:51;100072.17;;;17.63;79.00
61478;BME280;47345;52.334;10.392;2023-07-30T00:43:22;100074.73;;;17.65;79.13
61478;BME280;47345;52.334;10.392;2023-07-30T00:45:53;100078.48;;;17.65;79.18
61478;BME280;47345;52.334;10.392;2023-07-30T00:48:24;100075.23;;;17.68;79.40
61478;BME280;47345;52.334;10.392;2023-07-30T00:50:55;100075.69;;;17.71;79.56
61478;BME280;47345;52.334;10.392;2023-07-30T00:53:28;100080.96;;;17.75;79.58
61478;BME280;47345;52.334;10.392;2023-07-30T00:56:00;100081.91;;;17.78;79.46
61478;BME280;47345;52.334;10.392;2023-07-30T00:58:31;100086.35;;;17.82;79.33
61478;BME280;47345;52.334;10.392;2023-07-30T01:01:02;100083.04;;;17.81;79.10
61478;BME280;47345;52.334;10.392;2023-07-30T01:03:33;100084.13;;;17.79;79.12
61478;BME280;47345;52.334;10.392;2023-07-30T01:06:05;100085.23;;;17.77;79.20
61478;BME280;47345;52.334;10.392;2023-07-30T01:08:36;100088.75;;;17.74;79.23
61478;BME280;47345;52.334;10.392;2023-07-30T01:11:08;100092.95;;;17.68;79.22
61478;BME280;47345;52.334;10.392;2023-07-30T01:13:40;100094.30;;;17.63;79.56
61478;BME280;47345;52.334;10.392;2023-07-30T01:16:15;100093.50;;;17.57;79.70
61478;BME280;47345;52.334;10.392;2023-07-30T01:18:46;100092.77;;;17.54;80.00
61478;BME280;47345;52.334;10.392;2023-07-30T01:21:18;100095.75;;;17.52;80.04
61478;BME280;47345;52.334;10.392;2023-07-30T01:23:49;100095.68;;;17.50;80.20
61478;BME280;47345;52.334;10.392;2023-07-30T01:26:22;100094.52;;;17.48;80.36
61478;BME280;47345;52.334;10.392;2023-07-30T01:28:58;100095.56;;;17.45;80.43
61478;BME280;47345;52.334;10.392;2023-07-30T01:31:32;100102.24;;;17.44;80.57
61478;BME280;47345;52.334;10.392;2023-07-30T01:34:05;100096.32;;;17.43;80.68
61478;BME280;47345;52.334;10.392;2023-07-30T01:36:39;100101.19;;;17.43;80.88
61478;BME280;47345;52.334;10.392;2023-07-30T01:39:11;100096.88;;;17.44;81.09
61478;BME280;47345;52.334;10.392;2023-07-30T01:41:45;100103.36;;;17.45;81.12
61478;BME280;47345;52.334;10.392;2023-07-30T01:44:16;100103.08;;;17.45;81.26
61478;BME280;47345;52.334;10.392;2023-07-30T01:46:47;100109.67;;;17.48;81.32
61478;BME280;47345;52.334;10.392;2023-07-30T01:49:18;100113.49;;;17.53;81.33
61478;BME280;47345;52.334;10.392;2023-07-30T01:51:49;100113.19;;;17.58;81.24
61478;BME280;47345;52.334;10.392;2023-07-30T01:54:20;100113.70;;;17.62;81.23
61478;BME280;47345;52.334;10.392;2023-07-30T01:56:51;100114.16;;;17.66;81.33
61478;BME280;47345;52.334;10.392;2023-07-30T01:59:21;100113.86;;;17.71;81.21
61478;BME280;47345;52.334;10.392;2023-07-30T02:01:52;100114.74;;;17.73;81.04
61478;BME280;47345;52.334;10.392;2023-07-30T02:04:23;100113.88;;;17.76;81.04
61478;BME280;47345;52.334;10.392;2023-07-30T02:06:53;100115.48;;;17.78;81.05
61478;BME280;47345;52.334;10.392;2023-07-30T02:09:24;100117.83;;;17.80;81.10
61478;BME280;47345;52.334;10.392;2023-07-30T02:11:55;100120.26;;;17.81;81.19
61478;BME280;47345;52.334;10.392;2023-07-30T02:14:26;100114.12;;;17.81;81.38
61478;BME280;47345;52.334;10.392;2023-07-30T02:16:57;100118.59;;;17.83;81.44
61478;BME280;47345;52.334;10.392;2023-07-30T02:19:28;100119.45;;;17.85;81.48
61478;BME280;47345;52.334;10.392;2023-07-30T02:21:59;100125.05;;;17.88;81.48
61478;BME280;47345;52.334;10.392;2023-07-30T02:24:31;100122.13;;;17.91;81.68
61478;BME280;47345;52.334;10.392;2023-07-30T02:27:02;100126.45;;;17.94;81.40
61478;BME280;47345;52.334;10.392;2023-07-30T02:29:33;100125.13;;;17.94;81.42
61478;BME280;47345;52.334;10.392;2023-07-30T02:32:05;100125.35;;;17.95;81.42
61478;BME280;47345;52.334;10.392;2023-07-30T02:34:36;100128.61;;;17.94;81.49
61478;BME280;47345;52.334;10.392;2023-07-30T02:37:07;100124.67;;;17.94;81.45
61478;BME280;47345;52.334;10.392;2023-07-30T02:39:38;100123.23;;;17.93;81.28
61478;BME280;47345;52.334;10.392;2023-07-30T02:42:10;100119.58;;;17.91;81.57
61478;BME280;47345;52.334;10.392;2023-07-30T02:44:41;100118.85;;;17.89;81.39
61478;BME280;47345;52.334;10.392;2023-07-30T02:47:11;100119.12;;;17.85;81.47
61478;BME280;47345;52.334;10.392;2023-07-30T02:49:42;100120.54;;;17.81;81.45
61478;BME280;47345;52.334;10.392;2023-07-30T02:52:13;100124.72;;;17.77;81.50
61478;BME280;47345;52.334;10.392;2023-07-30T02:54:44;100127.74;;;17.73;81.53
61478;BME280;47345;52.334;10.392;2023-07-30T02:57:15;100128.67;;;17.69;81.63
61478;BME280;47345;52.334;10.392;2023-07-30T02:59:46;100129.66;;;17.65;81.76
61478;BME280;47345;52.334;10.392;2023-07-30T03:02:17;100133.72;;;17.61;81.84
61478;BME280;47345;52.334;10.392;2023-07-30T03:04:47;100135.58;;;17.56;81.94
61478;BME280;47345;52.334;10.392;2023-07-30T03:07:19;100139.27;;;17.52;82.14
61478;BME280;47345;52.334;10.392;2023-07-30T03:09:49;100143.12;;;17.46;82.15
61478;BME280;47345;52.334;10.392;2023-07-30T03:12:20;100145.35;;;17.39;82.30
61478;BME280;47345;52.334;10.392;2023-07-30T03:14:50;100142.61;;;17.33;82.39
61478;BME280;47345;52.334;10.392;2023-07-30T03:17:21;100149.37;;;17.28;82.37
61478;BME280;47345;52.334;10.392;2023-07-30T03:19:52;100148.63;;;17.22;82.42
61478;BME280;47345;52.334;10.392;2023-07-30T03:22:23;100151.40;;;17.18;82.44
61478;BME280;47345;52.334;10.392;2023-07-30T03:24:54;100148.67;;;17.14;82.51
61478;BME280;47345;52.334;10.392;2023-07-30T03:27:25;100145.88;;;17.09;82.51
61478;BME280;47345;52.334;10.392;2023-07-30T03:29:56;100148.16;;;17.05;82.57
61478;BME280;47345;52.334;10.392;2023-07-30T03:32:27;100149.52;;;17.01;82.62
61478;BME280;47345;52.334;10.392;2023-07-30T03:34:58;100150.48;;;16.99;82.71
61478;BME280;47345;52.334;10.392;2023-07-30T03:37:29;100147.81;;;16.97;82.67
61478;BME280;47345;52.334;10.392;2023-07-30T03:39:59;100151.83;;;16.95;82.72
61478;BME280;47345;52.334;10.392;2023-07-30T03:42:30;100154.23;;;16.93;82.74
61478;BME280;47345;52.334;10.392;2023-07-30T03:45:01;100154.05;;;16.90;82.83
61478;BME280;47345;52.334;10.392;2023-07-30T03:47:32;100154.77;;;16.90;82.90
61478;BME280;47345;52.334;10.392;2023-07-30T03:50:03;100155.16;;;16.89;82.87
61478;BME280;47345;52.334;10.392;2023-07-30T03:52:34;100163.73;;;16.91;82.91
61478;BME280;47345;52.334;10.392;2023-07-30T03:55:06;100171.37;;;16.94;82.74
61478;BME280;47345;52.334;10.392;2023-07-30T03:57:37;100175.15;;;16.95;82.54
61478;BME280;47345;52.334;10.392;2023-07-30T04:00:09;100174.45;;;17.10;82.47
61478;BME280;47345;52.334;10.392;2023-07-30T04:02:40;100178.10;;;17.32;82.03
61478;BME280;47345;52.334;10.392;2023-07-30T04:05:11;100186.23;;;17.53;81.38
61478;BME280;47345;52.334;10.392;2023-07-30T04:07:42;100183.84;;;17.71;80.71
61478;BME280;47345;52.334;10.392;2023-07-30T04:10:13;100182.36;;;17.85;80.14
61478;BME280;47345;52.334;10.392;2023-07-30T04:12:44;100183.92;;;18.03;79.72
61478;BME280;47345;52.334;10.392;2023-07-30T04:15:16;100184.31;;;18.27;79.08
61478;BME280;47345;52.334;10.392;2023-07-30T04:17:47;100186.58;;;18.50;78.27
61478;BME280;47345;52.334;10.392;2023-07-30T04:20:17;100191.25;;;18.75;77.55
61478;BME280;47345;52.334;10.392;2023-07-30T04:22:48;100189.40;;;19.02;76.38
61478;BME280;47345;52.334;10.392;2023-07-30T04:25:19;100189.23;;;19.21;75.49
61478;BME280;47345;52.334;10.392;2023-07-30T04:27:49;100190.30;;;19.44;74.96
61478;BME280;47345;52.334;10.392;2023-07-30T04:30:20;100191.17;;;19.64;74.18
61478;BME280;47345;52.334;10.392;2023-07-30T04:32:51;100186.90;;;19.89;73.73
61478;BME280;47345;52.334;10.392;2023-07-30T04:35:23;100190.96;;;20.17;72.65
61478;BME280;47345;52.334;10.392;2023-07-30T04:37:54;100189.45;;;20.39;71.81
61478;BME280;47345;52.334;10.392;2023-07-30T04:40:24;100194.78;;;20.58;70.88
61478;BME280;47345;52.334;10.392;2023-07-30T04:42:55;100190.17;;;20.71;70.08
61478;BME280;47345;52.334;10.392;2023-07-30T04:45:26;100189.55;;;20.86;69.48
61478;BME280;47345;52.334;10.392;2023-07-30T04:47:57;100194.30;;;20.98;68.72
61478;BME280;47345;52.334;10.392;2023-07-30T04:50:28;100195.27;;;21.06;68.40
61478;BME280;47345;52.334;10.392;2023-07-30T04:52:59;100195.46;;;21.21;67.95
61478;BME280;47345;52.334;10.392;2023-07-30T04:55:30;100193.79;;;21.34;67.38
61478;BME280;47345;52.334;10.392;2023-07-30T04:58:02;100194.64;;;21.49;66.74
61478;BME280;47345;52.334;10.392;2023-07-30T05:00:33;100193.01;;;21.57;66.26
61478;BME280;47345;52.334;10.392;2023-07-30T05:03:03;100194.24;;;21.62;66.04
61478;BME280;47345;52.334;10.392;2023-07-30T05:05:35;100195.02;;;21.72;65.63
61478;BME280;47345;52.334;10.392;2023-07-30T05:08:05;100199.14;;;21.77;65.09
61478;BME280;47345;52.334;10.392;2023-07-30T05:10:36;100197.11;;;21.74;64.83
61478;BME280;47345;52.334;10.392;2023-07-30T05:13:08;100195.10;;;21.74;64.82
61478;BME280;47345;52.334;10.392;2023-07-30T05:15:39;100195.21;;;21.75;64.93
61478;BME280;47345;52.334;10.392;2023-07-30T05:18:09;100189.44;;;21.65;65.01
61478;BME280;47345;52.334;10.392;2023-07-30T05:20:40;100193.11;;;21.51;65.26
61478;BME280;47345;52.334;10.392;2023-07-30T05:23:12;100191.88;;;21.35;65.52
61478;BME280;47345;52.334;10.392;2023-07-30T05:25:42;100189.35;;;21.16;65.46
61478;BME280;47345;52.334;10.392;2023-07-30T05:28:13;100185.30;;;20.95;66.18
61478;BME280;47345;52.334;10.392;2023-07-30T05:30:44;100186.04;;;20.76;66.52
61478;BME280;47345;52.334;10.392;2023-07-30T05:33:15;100189.77;;;20.61;67.11
61478;BME280;47345;52.334;10.392;2023-07-30T05:35:46;100186.44;;;20.51;67.53
61478;BME280;47345;52.334;10.392;2023-07-30T05:38:18;100188.27;;;20.41;67.89
61478;BME280;47345;52.334;10.392;2023-07-30T05:40:48;100187.88;;;20.34;68.32
61478;BME280;47345;52.334;10.392;2023-07-30T05:43:19;100189.95;;;20.30;68.60
61478;BME280;47345;52.334;10.392;2023-07-30T05:45:50;100185.36;;;20.24;68.72
61478;BME280;47345;52.334;10.392;2023-07-30T05:48:21;100185.18;;;20.18;69.16
61478;BME280;47345;52.334;10.392;2023-07-30T05:50:52;100187.48;;;20.16;69.44
61478;BME280;47345;52.334;10.392;2023-07-30T05:53:23;100185.71;;;20.11;69.45
61478;BME280;47345;52.334;10.392;2023-07-30T05:55:54;100189.05;;;20.11;69.78
61478;BME280;47345;52.334;10.392;2023-07-30T05:58:25;100192.16;;;20.11;69.86
61478;BME280;47345;52.334;10.392;2023-07-30T06:00:55;100192.50;;;20.10;69.92
61478;BME280;47345;52.334;10.392;2023-07-30T06:03:27;100190.29;;;20.08;70.39
61478;BME280;47345;52.334;10.392;2023-07-30T06:05:58;100193.66;;;20.12;70.52
61478;BME280;47345;52.334;10.392;2023-07-30T06:08:29;100191.99;;;20.20;70.42
61478;BME280;47345;52.334;10.392;2023-07-30T06:11:03;100191.67;;;20.29;70.31
61478;BME280;47345;52.334;10.392;2023-07-30T06:13:33;100195.52;;;20.35;70.11
61478;BME280;47345;52.334;10.392;2023-07-30T06:16:04;100198.04;;;20.44;70.52
61478;BME280;47345;52.334;10.392;2023-07-30T06:18:36;100196.45;;;20.58;70.45
61478;BME280;47345;52.334;10.392;2023-07-30T06:21:07;100198.28;;;20.73;69.86
61478;BME280;47345;52.334;10.392;2023-07-30T06:23:38;100197.75;;;20.79;69.28
61478;BME280;47345;52.334;10.392;2023-07-30T06:26:09;100195.96;;;20.84;68.68
61478;BME280;47345;52.334;10.392;2023-07-30T06:28:40;100199.12;;;20.84;68.41
61478;BME280;47345;52.334;10.392;2023-07-30T06:31:11;100195.95;;;20.85;68.45
61478;BME280;47345;52.334;10.392;2023-07-30T06:33:42;100198.06;;;20.90;68.49
61478;BME280;47345;52.334;10.392;2023-07-30T06:36:13;100199.47;;;20.96;68.36
61478;BME280;47345;52.334;10.392;2023-07-30T06:38:43;100201.11;;;21.00;68.05
61478;BME280;47345;52.334;10.392;2023-07-30T06:41:15;100198.27;;;21.06;67.83
61478;BME280;47345;52.334;10.392;2023-07-30T06:43:46;100200.60;;;21.13;66.88
61478;BME280;47345;52.334;10.392;2023-07-30T06:46:17;100199.89;;;21.18;66.42
61478;BME280;47345;52.334;10.392;2023-07-30T06:48:49;100202.77;;;21.15;65.83
61478;BME280;47345;52.334;10.392;2023-07-30T06:51:23;100200.61;;;21.15;64.78
61478;BME280;47345;52.334;10.392;2023-07-30T06:53:55;100198.42;;;21.15;64.78
61478;BME280;47345;52.334;10.392;2023-07-30T06:56:26;100205.10;;;21.15;64.56
61478;BME280;47345;52.334;10.392;2023-07-30T06:58:58;100209.86;;;21.16;64.52
61478;BME280;47345;52.334;10.392;2023-07-30T07:01:29;100209.77;;;21.21;64.07
61478;BME280;47345;52.334;10.392;2023-07-30T07:04:00;100204.75;;;21.22;62.36
61478;BME280;47345;52.334;10.392;2023-07-30T07:06:31;100205.75;;;21.21;62.87
61478;BME280;47345;52.334;10.392;2023-07-30T07:09:02;100202.81;;;21.26;62.37
61478;BME280;47345;52.334;10.392;2023-07-30T07:11:33;100205.12;;;21.30;62.13
61478;BME280;47345;52.334;10.392;2023-07-30T07:14:04;100205.85;;;21.35;62.25
61478;BME280;47345;52.334;10.392;2023-07-30T07:16:35;100208.96;;;21.42;61.14
61478;BME280;47345;52.334;10.392;2023-07-30T07:19:06;100208.77;;;21.44;60.44
61478;BME280;47345;52.334;10.392;2023-07-30T07:21:36;100206.52;;;21.48;59.64
61478;BME280;47345;52.334;10.392;2023-07-30T07:24:08;100201.17;;;21.48;58.38
61478;BME280;47345;52.334;10.392;2023-07-30T07:26:39;100209.34;;;21.49;57.82
61478;BME280;47345;52.334;10.392;2023-07-30T07:29:10;100216.33;;;21.51;57.99
61478;BME280;47345;52.334;10.392;2023-07-30T07:31:41;100214.91;;;21.53;56.89
61478;BME280;47345;52.334;10.392;2023-07-30T07:34:13;100214.23;;;21.59;56.33
61478;BME280;47345;52.334;10.392;2023-07-30T07:36:44;100214.09;;;21.66;56.45
61478;BME280;47345;52.334;10.392;2023-07-30T07:39:14;100214.77;;;21.70;56.44
61478;BME280;47345;52.334;10.392;2023-07-30T07:41:45;100215.83;;;21.79;55.84
61478;BME280;47345;52.334;10.392;2023-07-30T07:44:16;100218.07;;;21.87;55.32
61478;BME280;47345;52.334;10.392;2023-07-30T07:46:47;100219.40;;;21.93;54.51
61478;BME280;47345;52.334;10.392;2023-07-30T07:49:19;100219.48;;;22.01;54.62
61478;BME280;47345;52.334;10.392;2023-07-30T07:51:49;100223.17;;;22.13;54.70
61478;BME280;47345;52.334;10.392;2023-07-30T07:54:20;100219.92;;;22.27;54.10
61478;BME280;47345;52.334;10.392;2023-07-30T07:56:51;100224.89;;;22.35;52.50
61478;BME280;47345;52.334;10.392;2023-07-30T07:59:22;100226.80;;;22.32;52.57
61478;BME280;47345;52.334;10.392;2023-07-30T08:01:53;100227.00;;;22.35;52.92
61478;BME280;47345;52.334;10.392;2023-07-30T08:04:24;100222.21;;;22.34;52.05
61478;BME280;47345;52.334;10.392;2023-07-30T08:06:55;100220.61;;;22.34;52.01
61478;BME280;47345;52.334;10.392;2023-07-30T08:09:29;100222.11;;;22.34;51.90
61478;BME280;47345;52.334;10.392;2023-07-30T08:12:01;100221.63;;;22.41;52.19
61478;BME280;47345;52.334;10.392;2023-07-30T08:14:31;100230.05;;;22.50;52.25
61478;BME280;47345;52.334;10.392;2023-07-30T08:17:02;100230.12;;;22.58;51.88
61478;BME280;47345;52.334;10.392;2023-07-30T08:19:35;100230.64;;;22.63;52.35
61478;BME280;47345;52.334;10.392;2023-07-30T08:22:06;100230.36;;;22.72;52.24
61478;BME280;47345;52.334;10.392;2023-07-30T08:24:39;100230.43;;;22.75;51.95
61478;BME280;47345;52.334;10.392;2023-07-30T08:27:11;100229.73;;;22.82;52.21
61478;BME280;47345;52.334;10.392;2023-07-30T08:29:44;100232.50;;;22.95;52.26
61478;BME280;47345;52.334;10.392;2023-07-30T08:32:15;100231.83;;;23.03;50.25
61478;BME280;47345;52.334;10.392;2023-07-30T08:34:47;100227.71;;;23.09;50.73
61478;BME280;47345;52.334;10.392;2023-07-30T08:37:19;100232.45;;;23.24;51.30
61478;BME280;47345;52.334;10.392;2023-07-30T08:39:51;100230.70;;;23.44;50.17
61478;BME280;47345;52.334;10.392;2023-07-30T08:42:23;100226.45;;;23.57;50.16
61478;BME280;47345;52.334;10.392;2023-07-30T08:44:54;100222.98;;;23.73;49.20
61478;BME280;47345;52.334;10.392;2023-07-30T08:47:26;100223.90;;;23.85;48.68
61478;BME280;47345;52.334;10.392;2023-07-30T08:49:58;100221.75;;;23.98;48.42
61478;BME280;47345;52.334;10.392;2023-07-30T08:52:29;100223.70;;;24.16;47.52
61478;BME280;47345;52.334;10.392;2023-07-30T08:55:01;100221.85;;;24.31;47.36
61478;BME280;47345;52.334;10.392;2023-07-30T08:57:33;100215.31;;;24.49;48.21
61478;BME280;47345;52.334;10.392;2023-07-30T09:00:06;100215.05;;;24.65;47.46
61478;BME280;47345;52.334;10.392;2023-07-30T09:02:43;100211.76;;;24.79;47.08
61478;BME280;47345;52.334;10.392;2023-07-30T09:05:14;100210.59;;;24.85;46.49
61478;BME280;47345;52.334;10.392;2023-07-30T09:07:46;100206.33;;;24.97;46.54
61478;BME280;47345;52.334;10.392;2023-07-30T09:10:18;100208.98;;;25.09;46.79
61478;BME280;47345;52.334;10.392;2023-07-30T09:12:54;100209.11;;;25.20;45.67
61478;BME280;47345;52.334;10.392;2023-07-30T09:15:32;100215.73;;;25.24;45.05
61478;BME280;47345;52.334;10.392;2023-07-30T09:18:04;100214.63;;;25.23;44.65
61478;BME280;47345;52.334;10.392;2023-07-30T09:20:44;100209.26;;;25.21;44.44
61478;BME280;47345;52.334;10.392;2023-07-30T09:23:16;100209.45;;;25.20;44.63
61478;BME280;47345;52.334;10.392;2023-07-30T09:25:49;100209.56;;;25.19;44.92
61478;BME280;47345;52.334;10.392;2023-07-30T09:28:21;100211.58;;;25.13;45.12
61478;BME280;47345;52.334;10.392;2023-07-30T09:30:52;100212.22;;;25.07;44.91
61478;BME280;47345;52.334;10.392;2023-07-30T09:33:49;100208.02;;;25.03;45.67
61478;BME280;47345;52.334;10.392;2023-07-30T09:36:21;100202.77;;;24.98;45.47
61478;BME280;47345;52.334;10.392;2023-07-30T09:38:52;100199.83;;;25.01;46.32
61478;BME280;47345;52.334;10.392;2023-07-30T09:41:24;100203.77;;;25.10;45.58
61478;BME280;47345;52.334;10.392;2023-07-30T09:44:00;100205.29;;;25.14;44.99
61478;BME280;47345;52.334;10.392;2023-07-30T09:46:32;100202.51;;;25.16;45.46
61478;BME280;47345;52.334;10.392;2023-07-30T09:49:04;100205.40;;;25.21;45.44
61478;BME280;47345;52.334;10.392;2023-07-30T09:51:37;100206.36;;;25.33;45.55
61478;BME280;47345;52.334;10.392;2023-07-30T09:54:10;100211.84;;;25.29;44.32
61478;BME280;47345;52.334;10.392;2023-07-30T09:56:42;100206.47;;;25.18;43.84
61478;BME280;47345;52.334;10.392;2023-07-30T09:59:13;100211.42;;;25.20;44.23
61478;BME280;47345;52.334;10.392;2023-07-30T10:01:45;100223.02;;;25.30;45.01
61478;BME280;47345;52.334;10.392;2023-07-30T10:04:20;100222.58;;;25.40;44.64
61478;BME280;47345;52.334;10.392;2023-07-30T10:06:55;100235.95;;;25.50;44.19
61478;BME280;47345;52.334;10.392;2023-07-30T10:09:30;100231.73;;;25.49;43.88
61478;BME280;47345;52.334;10.392;2023-07-30T10:12:03;100233.42;;;25.57;44.89
61478;BME280;47345;52.334;10.392;2023-07-30T10:14:34;100242.67;;;25.69;44.82
61478;BME280;47345;52.334;10.392;2023-07-30T10:17:09;100246.30;;;25.84;44.09
61478;BME280;47345;52.334;10.392;2023-07-30T10:19:40;100243.95;;;25.91;43.56
61478;BME280;47345;52.334;10.392;2023-07-30T10:22:23;100247.77;;;25.93;43.70
61478;BME280;47345;52.334;10.392;2023-07-30T10:25:02;100254.46;;;26.00;43.79
61478;BME280;47345;52.334;10.392;2023-07-30T10:27:39;100253.17;;;26.04;43.21
61478;BME280;47345;52.334;10.392;2023-07-30T10:30:14;100258.55;;;26.08;43.08
61478;BME280;47345;52.334;10.392;2023-07-30T10:33:00;100260.49;;;25.97;43.16
61478;BME280;47345;52.334;10.392;2023-07-30T10:35:41;100259.95;;;25.78;43.50
61478;BME280;47345;52.334;10.392;2023-07-30T10:38:17;100260.61;;;25.52;43.64
61478;BME280;47345;52.334;10.392;2023-07-30T10:41:05;100257.67;;;25.25;43.49
61478;BME280;47345;52.334;10.392;2023-07-30T10:43:38;100260.84;;;24.94;43.80
61478;BME280;47345;52.334;10.392;2023-07-30T10:46:10;100265.66;;;24.77;44.65
61478;BME280;47345;52.334;10.392;2023-07-30T10:48:43;100270.65;;;24.65;44.88
61478;BME280;47345;52.334;10.392;2023-07-30T10:51:16;100266.58;;;24.55;45.31
61478;BME280;47345;52.334;10.392;2023-07-30T10:53:48;100268.42;;;24.46;45.53
61478;BME280;47345;52.334;10.392;2023-07-30T10:56:21;100271.36;;;24.37;46.17
61478;BME280;47345;52.334;10.392;2023-07-30T10:58:53;100277.64;;;24.28;46.08
61478;BME280;47345;52.334;10.392;2023-07-30T11:01:26;100282.45;;;24.17;46.47
61478;BME280;47345;52.334;10.392;2023-07-30T11:03:57;100282.98;;;24.15;46.35
61478;BME280;47345;52.334;10.392;2023-07-30T11:06:28;100290.48;;;24.18;46.78
61478;BME280;47345;52.334;10.392;2023-07-30T11:08:59;100292.33;;;24.24;46.99
61478;BME280;47345;52.334;10.392;2023-07-30T11:11:30;100288.48;;;24.32;47.08
61478;BME280;47345;52.334;10.392;2023-07-30T11:14:01;100286.68;;;24.40;47.09
61478;BME280;47345;52.334;10.392;2023-07-30T11:16:33;100286.80;;;24.42;47.14
61478;BME280;47345;52.334;10.392;2023-07-30T11:19:09;100289.15;;;24.42;47.13
61478;BME280;47345;52.334;10.392;2023-07-30T11:21:46;100290.56;;;24.44;47.25
61478;BME280;47345;52.334;10.392;2023-07-30T11:24:20;100292.91;;;24.52;47.39
61478;BME280;47345;52.334;10.392;2023-07-30T11:27:00;100295.13;;;24.55;47.27
61478;BME280;47345;52.334;10.392;2023-07-30T11:29:32;100293.46;;;24.65;48.13
61478;BME280;47345;52.334;10.392;2023-07-30T15:22:49;100254.68;;;26.27;40.11
61478;BME280;47345;52.334;10.392;2023-07-30T15:25:20;100256.02;;;25.97;39.35
61478;BME280;47345;52.334;10.392;2023-07-30T15:27:51;100261.54;;;25.67;40.54
61478;BME280;47345;52.334;10.392;2023-07-30T15:30:22;100262.91;;;25.39;40.81
61478;BME280;47345;52.334;10.392;2023-07-30T15:32:53;100260.95;;;25.13;41.37
61478;BME280;47345;52.334;10.392;2023-07-30T15:35:24;100265.48;;;24.82;41.52
61478;BME280;47345;52.334;10.392;2023-07-30T15:37:55;100265.41;;;24.51;41.87
61478;BME280;47345;52.334;10.392;2023-07-30T15:40:26;100272.38;;;24.21;42.22
61478;BME280;47345;52.334;10.392;2023-07-30T15:42:57;100271.75;;;23.92;42.94
61478;BME280;47345;52.334;10.392;2023-07-30T15:45:28;100272.64;;;23.72;43.04
61478;BME280;47345;52.334;10.392;2023-07-30T15:47:59;100282.89;;;23.54;43.21
61478;BME280;47345;52.334;10.392;2023-07-30T15:50:31;100278.02;;;23.38;43.89
61478;BME280;47345;52.334;10.392;2023-07-30T15:53:02;100275.58;;;23.24;44.38
61478;BME280;47345;52.334;10.392;2023-07-30T15:55:35;100276.15;;;23.10;44.87
61478;BME280;47345;52.334;10.392;2023-07-30T15:58:05;100281.14;;;22.98;45.28
61478;BME280;47345;52.334;10.392;2023-07-30T16:00:37;100293.46;;;22.84;45.26
61478;BME280;47345;52.334;10.392;2023-07-30T16:03:07;100302.13;;;22.67;45.71
61478;BME280;47345;52.334;10.392;2023-07-30T16:05:40;100289.67;;;22.52;46.57
61478;BME280;47345;52.334;10.392;2023-07-30T16:08:14;100292.21;;;22.38;46.78
61478;BME280;47345;52.334;10.392;2023-07-30T16:10:45;100293.33;;;22.21;46.60
61478;BME280;47345;52.334;10.392;2023-07-30T16:13:16;100290.88;;;22.10;46.50
61478;BME280;47345;52.334;10.392;2023-07-30T16:15:47;100294.90;;;22.05;46.90
61478;BME280;47345;52.334;10.392;2023-07-30T16:18:18;100298.16;;;22.06;47.13
61478;BME280;47345;52.334;10.392;2023-07-30T16:20:49;100294.33;;;22.15;47.30
61478;BME280;47345;52.334;10.392;2023-07-30T16:23:30;100294.81;;;22.35;47.37
61478;BME280;47345;52.334;10.392;2023-07-30T16:26:01;100298.80;;;22.57;46.90
61478;BME280;47345;52.334;10.392;2023-07-30T16:28:32;100299.99;;;22.87;46.48
61478;BME280;47345;52.334;10.392;2023-07-30T16:31:03;100296.74;;;23.22;45.70
61478;BME280;47345;52.334;10.392;2023-07-30T16:33:34;100300.30;;;23.61;45.86
61478;BME280;47345;52.334;10.392;2023-07-30T16:36:05;100301.98;;;23.83;45.12
61478;BME280;47345;52.334;10.392;2023-07-30T16:38:37;100295.75;;;23.87;45.55
61478;BME280;47345;52.334;10.392;2023-07-30T16:41:08;100300.18;;;23.86;44.75
61478;BME280;47345;52.334;10.392;2023-07-30T16:43:39;100301.95;;;23.75;44.42
61478;BME280;47345;52.334;10.392;2023-07-30T16:46:09;100302.19;;;23.74;45.35
61478;BME280;47345;52.334;10.392;2023-07-30T16:48:40;100298.21;;;23.74;45.67
61478;BME280;47345;52.334;10.392;2023-07-30T16:51:11;100296.99;;;23.71;45.60
61478;BME280;47345;52.334;10.392;2023-07-30T16:53:41;100297.83;;;23.72;44.96